North Lewisburg, Ohio
Current Conditions -  °F | °C
As of 5:34 AM on Thursday 18 Dec 2014 (Local Time) from KMRT Reporting Station
Overcast Overcast  
Wind Chill: 19°   Ceiling: 1900
Heat Index: 27°   Visibility: 10mi
Dew Point: 19°   Wind: 7mph
Humidity: 74%   Direction: 340°NNW
Pressure: 30.24"   Gusts: NA
Location:  40.22°N, 83.56°W
Report Text: KMRT 181034Z AUTO 34006KT 10SM OVC019 M03/M07 A3024 RMK AO2 T10301071
Loading
Personal Weather Stations






























Interactive Weather Map New forecast layout! Learn more

10-Day Weather Forecast

Advertisements
Track Severe Weather on mobile